createdAt,value
2023-04-22T00:01:24.603Z,2.10
2023-04-22T00:04:11.680Z,3.70
2023-04-22T00:06:58.845Z,1.83
2023-04-22T00:09:45.967Z,3.37
2023-04-22T00:12:32.847Z,1.83
2023-04-22T00:15:21.696Z,1.27
2023-04-22T00:18:13.912Z,2.28
2023-04-22T00:21:01.193Z,1.48
2023-04-22T00:23:48.019Z,1.30
2023-04-22T00:26:34.907Z,1.20
2023-04-22T00:29:21.763Z,1.57
2023-04-22T00:32:08.612Z,0.97
2023-04-22T00:34:57.342Z,1.67
2023-04-22T00:37:44.224Z,0.80
2023-04-22T00:40:31.184Z,0.97
2023-04-22T00:43:18.095Z,3.73
2023-04-22T00:46:05.140Z,3.00
2023-04-22T00:48:52.621Z,2.08
2023-04-22T00:51:39.458Z,2.65
2023-04-22T00:54:26.679Z,3.05
2023-04-22T00:57:13.652Z,4.60
2023-04-22T01:00:00.733Z,2.03
2023-04-22T01:02:48.068Z,1.45
2023-04-22T01:05:35.844Z,1.90
2023-04-22T01:08:24.467Z,0.75
2023-04-22T01:11:11.324Z,1.13
2023-04-22T01:13:58.171Z,1.58
2023-04-22T01:16:46.108Z,0.90
2023-04-22T01:19:33.014Z,1.83
2023-04-22T01:22:21.327Z,0.90
2023-04-22T01:25:09.762Z,1.92
2023-04-22T01:27:57.134Z,0.80
2023-04-22T01:30:44.316Z,1.30
2023-04-22T01:33:31.891Z,0.85
2023-04-22T01:36:18.868Z,0.70
2023-04-22T01:39:05.830Z,1.00
2023-04-22T01:41:53.637Z,0.70
2023-04-22T01:47:27.751Z,0.75
2023-04-22T01:50:14.518Z,1.48
2023-04-22T01:53:01.977Z,1.75
2023-04-22T01:55:48.824Z,3.80
2023-04-22T01:58:35.905Z,1.00
2023-04-22T02:01:22.812Z,1.10
2023-04-22T02:04:09.626Z,3.10
2023-04-22T02:06:56.480Z,2.53
2023-04-22T02:09:43.651Z,2.80
2023-04-22T02:12:31.528Z,4.13
2023-04-22T02:15:18.432Z,5.72
2023-04-22T02:18:05.340Z,6.90
2023-04-22T02:20:52.149Z,5.60
2023-04-22T02:23:39.994Z,2.47
2023-04-22T02:29:13.746Z,1.20
2023-04-22T02:32:00.997Z,1.47
2023-04-22T02:34:48.647Z,1.00
2023-04-22T02:37:35.483Z,2.58
2023-04-22T02:40:22.437Z,1.80
2023-04-22T02:43:09.373Z,3.20
2023-04-22T02:45:56.217Z,1.40
2023-04-22T02:48:43.504Z,2.97
2023-04-22T02:51:31.098Z,1.45
2023-04-22T02:54:17.960Z,1.77
2023-04-22T02:57:04.786Z,0.98
2023-04-22T02:59:51.599Z,1.13
2023-04-22T03:02:39.074Z,0.90
2023-04-22T03:05:26.096Z,1.10
2023-04-22T03:08:12.899Z,1.30
2023-04-22T03:10:59.712Z,0.73
2023-04-22T03:13:46.577Z,2.05
2023-04-22T03:16:33.483Z,3.10
2023-04-22T03:19:20.439Z,1.10
2023-04-22T03:22:07.283Z,1.40
2023-04-22T03:24:54.086Z,1.10
2023-04-22T03:27:41.013Z,1.35
2023-04-22T03:30:27.792Z,3.07
2023-04-22T03:33:14.688Z,1.05
2023-04-22T03:36:01.513Z,0.97
2023-04-22T03:38:48.405Z,1.00
2023-04-22T03:41:35.451Z,3.13
2023-04-22T03:44:22.230Z,3.95
2023-04-22T03:47:09.016Z,1.00
2023-04-22T03:49:56.187Z,1.35
2023-04-22T03:52:43.012Z,1.17
2023-04-22T03:55:29.922Z,1.00
2023-04-22T03:58:16.734Z,2.57
2023-04-22T04:01:03.567Z,1.30
2023-04-22T04:03:51.984Z,1.70
2023-04-22T04:06:39.242Z,1.15
2023-04-22T04:09:26.325Z,1.02
2023-04-22T04:12:13.188Z,2.55
2023-04-22T04:15:02.875Z,2.33
2023-04-22T04:17:49.807Z,2.63
2023-04-22T04:20:36.655Z,2.60
2023-04-22T04:23:23.655Z,1.20
2023-04-22T04:26:11.000Z,1.30
2023-04-22T04:28:58.091Z,1.13
2023-04-22T04:31:44.985Z,2.28
2023-04-22T04:34:34.592Z,1.50
2023-04-22T04:37:22.936Z,2.30
2023-04-22T04:40:12.308Z,1.52
2023-04-22T04:42:59.151Z,1.05
2023-04-22T04:45:49.098Z,1.20
2023-04-22T04:48:36.432Z,2.72
2023-04-22T04:51:23.354Z,1.52
2023-04-22T04:54:10.186Z,2.17
2023-04-22T04:56:57.611Z,1.77
2023-04-22T04:59:44.460Z,1.88
2023-04-22T05:02:31.588Z,1.83
2023-04-22T05:05:18.684Z,2.72
2023-04-22T05:08:05.745Z,1.83
2023-04-22T05:10:52.561Z,1.25
2023-04-22T05:13:39.380Z,1.58
2023-04-22T05:16:26.368Z,1.40
2023-04-22T05:19:13.232Z,1.35
2023-04-22T05:22:00.190Z,2.40
2023-04-22T05:24:47.338Z,2.28
2023-04-22T05:27:34.620Z,11.27
2023-04-22T05:30:21.494Z,27.17
2023-04-22T05:33:11.146Z,40.63
2023-04-22T05:35:58.051Z,39.35
2023-04-22T05:38:44.841Z,38.17
2023-04-22T05:41:31.686Z,42.83
2023-04-22T05:44:18.475Z,39.43
2023-04-22T05:47:05.302Z,32.60
2023-04-22T05:49:52.068Z,26.60
2023-04-22T05:52:38.899Z,25.98
2023-04-22T05:55:25.730Z,21.87
2023-04-22T05:58:12.546Z,11.43
2023-04-22T06:00:59.319Z,8.25
2023-04-22T06:03:46.466Z,8.90
2023-04-22T06:06:33.578Z,5.95
2023-04-22T06:09:21.496Z,5.43
2023-04-22T06:14:55.029Z,5.63
2023-04-22T06:17:41.937Z,7.53
2023-04-22T06:20:28.955Z,9.80
2023-04-22T06:23:15.796Z,7.30
2023-04-22T06:26:02.783Z,4.40
2023-04-22T06:28:49.837Z,4.47
2023-04-22T06:31:36.892Z,5.35
2023-04-22T06:34:23.907Z,6.63
2023-04-22T06:37:10.911Z,5.28
2023-04-22T06:39:57.762Z,5.63
2023-04-22T06:42:44.603Z,4.37
2023-04-22T06:45:31.469Z,3.58
2023-04-22T06:48:18.325Z,6.00
2023-04-22T06:51:05.260Z,2.80
2023-04-22T06:53:52.102Z,2.30
2023-04-22T06:56:39.091Z,2.47
2023-04-22T06:59:25.969Z,2.07
2023-04-22T07:02:12.869Z,4.57
2023-04-22T07:04:59.825Z,2.90
2023-04-22T07:07:47.322Z,3.22
2023-04-22T07:10:34.580Z,3.45
2023-04-22T07:13:21.424Z,3.50
2023-04-22T07:16:08.438Z,3.70
2023-04-22T07:18:55.448Z,3.47
2023-04-22T07:21:42.279Z,3.65
2023-04-22T07:24:29.626Z,2.15
2023-04-22T07:27:17.340Z,1.95
2023-04-22T07:30:06.158Z,1.77
2023-04-22T07:32:53.288Z,1.70
2023-04-22T07:35:40.384Z,2.67
2023-04-22T07:38:27.229Z,2.60
2023-04-22T07:41:14.135Z,2.47
2023-04-22T07:44:00.986Z,2.97
2023-04-22T07:46:48.758Z,3.15
2023-04-22T07:52:22.522Z,2.67
2023-04-22T07:55:09.647Z,2.73
2023-04-22T07:57:56.493Z,2.47
2023-04-22T08:00:43.385Z,3.27
2023-04-22T08:03:30.387Z,2.47
2023-04-22T08:06:17.765Z,2.15
2023-04-22T08:09:04.593Z,4.20
2023-04-22T08:11:52.537Z,1.95
2023-04-22T08:14:39.354Z,4.15
2023-04-22T08:17:26.677Z,1.60
2023-04-22T08:20:15.530Z,3.40
2023-04-22T08:23:02.698Z,1.95
2023-04-22T08:25:50.127Z,1.95
2023-04-22T08:28:37.224Z,3.05
2023-04-22T08:31:24.120Z,3.00
2023-04-22T08:34:11.412Z,2.40
2023-04-22T08:36:58.352Z,4.82
2023-04-22T08:39:45.322Z,8.00
2023-04-22T08:42:32.379Z,1.67
2023-04-22T08:45:20.023Z,2.40
2023-04-22T08:48:09.390Z,1.88
2023-04-22T08:50:57.908Z,1.90
2023-04-22T08:53:45.547Z,2.35
2023-04-22T08:56:32.668Z,1.92
2023-04-22T08:59:21.544Z,3.72
2023-04-22T09:02:14.311Z,4.40
2023-04-22T09:05:02.917Z,2.13
2023-04-22T09:07:49.943Z,2.58
2023-04-22T09:10:38.335Z,3.67
2023-04-22T09:13:26.651Z,1.17
2023-04-22T09:16:13.538Z,1.90
2023-04-22T09:19:01.200Z,4.03
2023-04-22T09:21:49.983Z,2.35
2023-04-22T09:24:41.623Z,1.85
2023-04-22T09:27:29.026Z,1.45
2023-04-22T09:30:19.229Z,2.38
2023-04-22T09:33:07.393Z,1.63
2023-04-22T09:35:55.995Z,1.50
2023-04-22T09:38:53.049Z,1.55
2023-04-22T09:41:41.189Z,1.38
2023-04-22T09:44:28.901Z,1.65
2023-04-22T09:50:04.729Z,1.75
2023-04-22T09:53:06.012Z,3.63
2023-04-22T09:55:54.977Z,2.13
2023-04-22T09:58:43.552Z,2.17
2023-04-22T10:01:41.444Z,2.15
2023-04-22T10:04:28.802Z,1.45
2023-04-22T10:07:16.242Z,1.33
2023-04-22T10:10:03.896Z,1.90
2023-04-22T10:15:44.459Z,1.67
2023-04-22T10:18:33.000Z,2.03
2023-04-22T10:21:21.370Z,1.35
2023-04-22T10:24:14.744Z,1.08
2023-04-22T10:27:08.546Z,1.90
2023-04-22T10:29:57.664Z,2.20
2023-04-22T10:32:44.537Z,1.90
2023-04-22T10:35:31.378Z,2.67
2023-04-22T10:38:18.254Z,2.07
2023-04-22T10:41:05.542Z,1.27
2023-04-22T10:44:00.419Z,2.45
2023-04-22T10:46:53.271Z,1.98
2023-04-22T10:49:40.638Z,1.75
2023-04-22T10:52:29.462Z,2.13
2023-04-22T10:55:16.565Z,1.45
2023-04-22T10:58:03.379Z,1.52
2023-04-22T11:00:58.173Z,3.27
2023-04-22T11:03:45.116Z,1.75
2023-04-22T11:06:32.586Z,4.85
2023-04-22T11:09:19.372Z,2.00
2023-04-22T11:12:40.071Z,5.63
2023-04-22T11:15:29.125Z,1.60
2023-04-22T11:18:21.546Z,2.30
2023-04-22T11:21:09.426Z,2.17
2023-04-22T11:23:57.628Z,1.45
2023-04-22T11:26:44.426Z,2.33
2023-04-22T11:29:31.225Z,3.23
2023-04-22T11:32:18.040Z,1.65
2023-04-22T11:35:07.087Z,3.38
2023-04-22T11:37:56.029Z,6.38
2023-04-22T11:40:45.961Z,2.33
2023-04-22T11:43:33.231Z,2.50
2023-04-22T11:46:31.292Z,3.08
2023-04-22T11:52:05.407Z,2.00
2023-04-22T11:54:52.298Z,4.15
2023-04-22T11:57:39.560Z,1.45
2023-04-22T12:00:37.173Z,1.88
2023-04-22T12:03:31.308Z,5.15
2023-04-22T12:06:18.416Z,2.75
2023-04-22T12:09:08.154Z,4.70
2023-04-22T12:11:55.009Z,3.28
2023-04-22T12:14:46.421Z,2.13
2023-04-22T12:17:33.242Z,1.63
2023-04-22T12:20:20.262Z,2.43
2023-04-22T12:23:14.143Z,3.28
2023-04-22T12:26:01.455Z,1.75
2023-04-22T12:28:48.575Z,2.60
2023-04-22T12:31:35.644Z,2.60
2023-04-22T12:34:22.531Z,2.75
2023-04-22T12:37:09.426Z,1.88
2023-04-22T12:39:56.207Z,3.27
2023-04-22T12:42:43.070Z,2.25
2023-04-22T12:45:29.858Z,1.95
2023-04-22T12:48:17.107Z,2.30
2023-04-22T12:51:04.590Z,1.65
2023-04-22T12:53:51.368Z,2.17
2023-04-22T12:56:38.295Z,2.40
2023-04-22T12:59:25.249Z,2.28
2023-04-22T13:02:12.269Z,5.13
2023-04-22T13:04:59.162Z,5.25
2023-04-22T13:07:50.754Z,2.85
2023-04-22T13:10:46.776Z,4.72
2023-04-22T13:13:33.669Z,7.67
2023-04-22T13:16:21.260Z,5.83
2023-04-22T13:19:08.094Z,5.28
2023-04-22T13:21:54.916Z,3.67
2023-04-22T13:24:41.744Z,3.40
2023-04-22T13:27:28.919Z,3.47
2023-04-22T13:30:15.913Z,2.28
2023-04-22T13:33:03.392Z,2.80
2023-04-22T13:35:50.350Z,4.53
2023-04-22T13:38:37.235Z,2.43
2023-04-22T13:41:24.099Z,2.00
2023-04-22T13:44:14.167Z,2.53
2023-04-22T13:47:02.699Z,2.85
2023-04-22T13:49:49.792Z,1.95
2023-04-22T13:52:36.796Z,5.07
2023-04-22T13:55:23.653Z,2.50
2023-04-22T13:58:11.134Z,4.33
2023-04-22T14:00:58.025Z,4.93
2023-04-22T14:03:46.333Z,2.60
2023-04-22T14:06:33.391Z,2.40
2023-04-22T14:09:20.327Z,3.88
2023-04-22T14:12:07.999Z,1.90
2023-04-22T14:17:41.639Z,2.38
2023-04-22T14:20:28.750Z,2.30
2023-04-22T14:23:15.781Z,2.70
2023-04-22T14:26:02.724Z,5.13
2023-04-22T14:28:49.588Z,2.30
2023-04-22T14:31:36.469Z,5.07
2023-04-22T14:34:23.383Z,3.03
2023-04-22T14:37:10.486Z,2.77
2023-04-22T14:39:57.696Z,2.83
2023-04-22T14:42:44.599Z,2.13
2023-04-22T14:45:32.169Z,2.33
2023-04-22T14:48:19.046Z,3.03
2023-04-22T14:51:06.424Z,3.37
2023-04-22T14:53:53.249Z,2.05
2023-04-22T14:56:40.154Z,3.00
2023-04-22T14:59:27.758Z,2.22
2023-04-22T15:02:16.014Z,1.50
2023-04-22T15:05:03.087Z,1.98
2023-04-22T15:07:52.914Z,1.90
2023-04-22T15:10:39.761Z,4.45
2023-04-22T15:13:26.602Z,2.93
2023-04-22T15:16:13.628Z,4.67
2023-04-22T15:19:00.617Z,3.25
2023-04-22T15:21:47.411Z,2.47
2023-04-22T15:24:34.337Z,4.03
2023-04-22T15:27:21.206Z,4.22
2023-04-22T15:30:09.019Z,4.05
2023-04-22T15:32:55.946Z,3.53
2023-04-22T15:35:45.576Z,2.95
2023-04-22T15:38:32.453Z,3.15
2023-04-22T15:41:19.274Z,3.80
2023-04-22T15:44:08.420Z,4.23
2023-04-22T15:46:57.237Z,5.05
2023-04-22T15:49:44.249Z,2.90
2023-04-22T15:52:31.080Z,3.83
2023-04-22T15:55:18.228Z,4.67
2023-04-22T15:58:05.114Z,2.50
2023-04-22T16:00:51.986Z,4.33
2023-04-22T16:03:38.976Z,3.00
2023-04-22T16:06:25.957Z,2.20
2023-04-22T16:09:13.056Z,2.80
2023-04-22T16:11:59.938Z,2.28
2023-04-22T16:14:46.999Z,4.80
2023-04-22T16:17:33.883Z,4.03
2023-04-22T16:20:20.841Z,4.35
2023-04-22T16:23:07.859Z,2.65
2023-04-22T16:25:54.824Z,3.60
2023-04-22T16:28:41.651Z,6.38
2023-04-22T16:31:28.541Z,4.47
2023-04-22T16:34:15.927Z,5.20
2023-04-22T16:37:03.425Z,4.80
2023-04-22T16:39:50.662Z,5.88
2023-04-22T16:42:37.552Z,4.43
2023-04-22T16:45:24.353Z,6.13
2023-04-22T16:48:11.235Z,8.97
2023-04-22T16:50:58.047Z,4.20
2023-04-22T16:53:45.473Z,5.90
2023-04-22T16:56:32.282Z,7.93
2023-04-22T16:59:19.173Z,8.13
2023-04-22T17:02:06.169Z,4.23
2023-04-22T17:04:53.009Z,3.45
2023-04-22T17:07:39.860Z,3.00
2023-04-22T17:10:27.670Z,7.13
2023-04-22T17:16:02.269Z,17.23
2023-04-22T17:18:49.147Z,25.63
2023-04-22T17:21:36.809Z,37.60
2023-04-22T17:24:24.876Z,41.83
2023-04-22T17:27:15.099Z,34.72
2023-04-22T17:30:01.970Z,29.35
2023-04-22T17:32:48.975Z,16.23
2023-04-22T17:35:35.779Z,8.25
2023-04-22T17:38:22.692Z,7.33
2023-04-22T17:41:09.649Z,6.80
2023-04-22T17:43:57.878Z,5.50
2023-04-22T17:46:45.926Z,4.20
2023-04-22T17:49:32.779Z,3.40
2023-04-22T17:52:19.582Z,4.07
2023-04-22T17:55:07.089Z,6.22
2023-04-22T17:57:53.894Z,20.77
2023-04-22T18:00:40.874Z,8.88
2023-04-22T18:03:27.945Z,7.32
2023-04-22T18:06:15.075Z,6.45
2023-04-22T18:09:01.988Z,4.50
2023-04-22T18:11:48.926Z,10.73
2023-04-22T18:14:35.816Z,13.50
2023-04-22T18:17:22.691Z,13.53
2023-04-22T18:20:17.214Z,11.73
2023-04-22T18:23:05.662Z,10.50
2023-04-22T18:25:53.980Z,11.00
2023-04-22T18:28:41.233Z,11.55
2023-04-22T18:31:28.123Z,13.75
2023-04-22T18:34:15.967Z,9.33
2023-04-22T18:39:49.850Z,7.22
2023-04-22T18:42:36.837Z,5.90
2023-04-22T18:45:23.770Z,5.78
2023-04-22T18:48:10.719Z,6.43
2023-04-22T18:50:57.545Z,8.73
2023-04-22T18:53:44.320Z,5.93
2023-04-22T18:56:32.930Z,4.13
2023-04-22T18:59:19.819Z,2.63
2023-04-22T19:02:06.801Z,2.60
2023-04-22T19:04:54.241Z,4.25
2023-04-22T19:07:44.439Z,3.15
2023-04-22T19:10:32.349Z,4.25
2023-04-22T19:13:29.298Z,2.83
2023-04-22T19:16:17.113Z,2.55
2023-04-22T19:19:04.047Z,2.58
2023-04-22T19:21:50.932Z,2.23
2023-04-22T19:24:39.659Z,5.10
2023-04-22T19:27:26.885Z,6.03
2023-04-22T19:30:14.883Z,5.75
2023-04-22T19:33:01.904Z,6.32
2023-04-22T19:35:48.906Z,5.28
2023-04-22T19:38:35.745Z,4.75
2023-04-22T19:41:22.834Z,48.30
2023-04-22T19:44:09.647Z,48.67
2023-04-22T19:46:56.846Z,27.98
2023-04-22T19:49:44.087Z,9.32
2023-04-22T19:52:35.899Z,7.25
2023-04-22T19:55:23.599Z,4.07
2023-04-22T19:58:10.912Z,4.10
2023-04-22T20:00:57.897Z,5.30
2023-04-22T20:03:44.966Z,5.82
2023-04-22T20:06:33.735Z,8.00
2023-04-22T20:09:21.093Z,4.28
2023-04-22T20:12:08.524Z,6.30
2023-04-22T20:14:58.937Z,5.32
2023-04-22T20:17:46.058Z,4.00
2023-04-22T20:20:33.087Z,3.90
2023-04-22T20:23:23.372Z,3.67
2023-04-22T20:26:10.677Z,4.03
2023-04-22T20:28:58.369Z,2.97
2023-04-22T20:31:45.362Z,3.25
2023-04-22T20:34:33.224Z,4.03
2023-04-22T20:40:11.072Z,4.82
2023-04-22T20:42:58.925Z,4.72
2023-04-22T20:48:32.694Z,13.98
2023-04-22T20:51:19.806Z,8.87
2023-04-22T20:54:14.654Z,4.78
2023-04-22T20:57:12.902Z,3.33
2023-04-22T20:59:59.668Z,5.25
2023-04-22T21:02:47.114Z,4.22
2023-04-22T21:05:40.826Z,4.07
2023-04-22T21:08:28.259Z,3.33
2023-04-22T21:11:15.511Z,2.85
2023-04-22T21:14:02.594Z,3.50
2023-04-22T21:17:03.532Z,2.55
2023-04-22T21:19:51.377Z,4.45
2023-04-22T21:25:29.681Z,2.35
2023-04-22T21:28:17.756Z,2.70
2023-04-22T21:31:05.006Z,3.55
2023-04-22T21:33:51.801Z,3.97
2023-04-22T21:36:39.099Z,3.22
2023-04-22T21:39:26.082Z,2.33
2023-04-22T21:42:12.944Z,3.17
2023-04-22T21:44:59.770Z,3.47
2023-04-22T21:47:46.746Z,3.65
2023-04-22T21:50:33.652Z,2.13
2023-04-22T21:53:20.734Z,4.40
2023-04-22T21:56:07.685Z,2.58
2023-04-22T21:58:55.643Z,4.00
2023-04-22T22:01:42.545Z,2.97
2023-04-22T22:04:29.589Z,3.13
2023-04-22T22:07:17.592Z,3.97
2023-04-22T22:10:14.346Z,3.90
2023-04-22T22:13:01.217Z,3.38
2023-04-22T22:15:48.068Z,3.57
2023-04-22T22:18:34.910Z,2.97
2023-04-22T22:21:21.982Z,3.10
2023-04-22T22:24:09.608Z,3.28
2023-04-22T22:26:57.981Z,2.85
2023-04-22T22:29:46.563Z,3.85
2023-04-22T22:32:33.742Z,4.15
2023-04-22T22:35:21.008Z,5.78
2023-04-22T22:38:07.867Z,5.13
2023-04-22T22:40:54.652Z,4.97
2023-04-22T22:43:41.506Z,5.57
2023-04-22T22:46:28.424Z,4.27
2023-04-22T22:49:15.302Z,3.90
2023-04-22T22:52:02.237Z,3.10
2023-04-22T22:54:50.198Z,3.25
2023-04-22T22:57:37.014Z,5.80
2023-04-22T23:00:23.840Z,2.80
2023-04-22T23:03:10.825Z,5.07
2023-04-22T23:05:58.185Z,6.38
2023-04-22T23:08:45.058Z,4.85
2023-04-22T23:11:31.934Z,2.80
2023-04-22T23:14:20.113Z,5.57
2023-04-22T23:17:07.040Z,4.40
2023-04-22T23:19:55.187Z,3.87
2023-04-22T23:22:42.747Z,3.33
2023-04-22T23:25:30.079Z,3.65
2023-04-22T23:28:17.182Z,4.97
2023-04-22T23:31:06.127Z,4.63
2023-04-22T23:33:57.156Z,5.00
2023-04-22T23:36:45.529Z,3.35
2023-04-22T23:39:32.584Z,3.13
2023-04-22T23:42:19.449Z,3.38
2023-04-22T23:45:07.285Z,5.55
2023-04-22T23:50:41.473Z,3.38
2023-04-22T23:53:28.444Z,2.78
2023-04-22T23:56:20.127Z,3.00
2023-04-22T23:59:07.348Z,5.40
